createdAt,value
2022-12-19T00:00:24.386Z,101938.17
2022-12-19T00:01:29.702Z,101932.23
2022-12-19T00:02:33.434Z,101924.14
2022-12-19T00:03:36.148Z,101930.05
2022-12-19T00:04:38.184Z,101930.19
2022-12-19T00:05:40.980Z,101924.28
2022-12-19T00:06:44.025Z,101936.31
2022-12-19T00:07:48.784Z,101923.69
2022-12-19T00:08:52.219Z,101927.20
2022-12-19T00:09:54.055Z,101925.81
2022-12-19T00:11:00.290Z,101923.30
2022-12-19T00:12:02.138Z,101919.62
2022-12-19T00:13:03.810Z,101942.13
2022-12-19T00:14:06.583Z,101936.44
2022-12-19T00:15:09.336Z,101934.14
2022-12-19T00:16:14.419Z,101926.57
2022-12-19T00:17:18.215Z,101919.53
2022-12-19T00:18:20.338Z,101935.15
2022-12-19T00:19:22.137Z,101936.89
2022-12-19T00:20:23.865Z,101938.33
2022-12-19T00:21:30.837Z,101936.44
2022-12-19T00:22:34.430Z,101923.69
2022-12-19T00:23:36.199Z,101920.59
2022-12-19T00:24:37.945Z,101920.00
2022-12-19T00:25:40.166Z,101917.02
2022-12-19T00:26:43.357Z,101920.35
2022-12-19T00:27:45.461Z,101918.01
2022-12-19T00:28:50.955Z,101946.83
2022-12-19T00:29:52.790Z,101946.83
2022-12-19T00:30:55.181Z,101935.36
2022-12-19T00:31:58.576Z,101927.20
2022-12-19T00:33:00.430Z,101951.38
2022-12-19T00:34:02.835Z,101937.67
2022-12-19T00:35:05.220Z,101932.94
2022-12-19T00:36:16.483Z,101939.84
2022-12-19T00:37:19.978Z,101924.47
2022-12-19T00:38:22.099Z,101928.39
2022-12-19T00:39:24.233Z,101924.23
2022-12-19T00:40:26.118Z,101928.44
2022-12-19T00:41:33.279Z,101951.83
2022-12-19T00:42:35.208Z,101949.53
2022-12-19T00:43:38.240Z,101938.96
2022-12-19T00:44:40.192Z,101945.83
2022-12-19T00:45:41.979Z,101941.38
2022-12-19T00:46:45.151Z,101956.11
2022-12-19T00:47:49.149Z,101951.73
2022-12-19T00:48:50.975Z,101952.50
2022-12-19T00:49:54.737Z,101977.88
2022-12-19T00:51:15.026Z,101950.69
2022-12-19T00:52:17.766Z,101940.59
2022-12-19T00:53:19.577Z,101949.94
2022-12-19T00:54:21.495Z,101960.90
2022-12-19T00:55:23.472Z,101951.87
2022-12-19T00:56:31.192Z,101949.48
2022-12-19T00:57:34.924Z,101961.34
2022-12-19T00:58:36.791Z,101954.05
2022-12-19T00:59:38.416Z,101953.28
2022-12-19T01:00:40.700Z,101944.78
2022-12-19T01:01:44.364Z,101946.50
2022-12-19T01:02:48.710Z,101936.70
2022-12-19T01:04:26.158Z,101945.97
2022-12-19T01:04:54.795Z,101938.95
2022-12-19T01:05:56.516Z,101944.00
2022-12-19T01:07:03.108Z,101942.47
2022-12-19T01:08:10.086Z,101948.47
2022-12-19T01:09:13.277Z,101933.88
2022-12-19T01:10:17.777Z,101929.41
2022-12-19T01:11:20.394Z,101942.44
2022-12-19T01:12:24.670Z,101944.78
2022-12-19T01:13:29.396Z,101950.23
2022-12-19T01:14:31.446Z,101950.81
2022-12-19T01:15:33.081Z,101957.64
2022-12-19T01:16:34.985Z,101994.84
2022-12-19T01:17:43.728Z,101992.69
2022-12-19T01:18:40.687Z,101977.34
2022-12-19T01:19:44.629Z,101958.98
2022-12-19T01:20:46.143Z,101973.18
2022-12-19T01:21:48.062Z,101978.45
2022-12-19T01:22:50.242Z,101970.94
2022-12-19T01:23:52.610Z,101970.34
2022-12-19T01:24:54.573Z,101989.33
2022-12-19T01:25:58.955Z,101976.30
2022-12-19T01:27:05.043Z,101976.08
2022-12-19T01:29:51.827Z,101977.06
2022-12-19T01:30:46.072Z,101974.91
2022-12-19T01:31:50.555Z,101980.83
2022-12-19T01:32:52.373Z,101969.09
2022-12-19T01:33:54.872Z,101975.49
2022-12-19T01:34:56.836Z,101968.78
2022-12-19T01:35:58.580Z,101976.45
2022-12-19T01:37:00.611Z,101968.13
2022-12-19T01:38:08.523Z,101978.45
2022-12-19T01:39:08.318Z,101973.00
2022-12-19T01:40:12.102Z,101972.81
2022-12-19T01:41:14.535Z,101987.41
2022-12-19T01:42:23.096Z,102001.69
2022-12-19T01:43:28.099Z,101984.64
2022-12-19T01:44:31.350Z,101982.36
2022-12-19T01:45:36.685Z,101986.05
2022-12-19T01:46:45.222Z,101984.09
2022-12-19T01:48:05.912Z,101984.89
2022-12-19T01:49:17.915Z,101990.52
2022-12-19T01:50:28.370Z,101996.17
2022-12-19T01:51:42.773Z,101996.56
2022-12-19T01:52:45.813Z,101999.39
2022-12-19T01:53:51.509Z,101997.34
2022-12-19T01:54:53.439Z,102005.70
2022-12-19T01:55:55.784Z,101999.86
2022-12-19T01:56:59.239Z,101999.09
2022-12-19T01:58:03.025Z,101999.86
2022-12-19T02:00:23.252Z,101999.41
2022-12-19T02:01:26.521Z,101986.07
2022-12-19T02:02:34.903Z,101987.23
2022-12-19T02:03:37.867Z,101990.75
2022-12-19T02:04:44.121Z,101983.34
2022-12-19T02:05:46.063Z,101988.91
2022-12-19T02:06:49.944Z,101987.83
2022-12-19T02:07:52.453Z,101990.53
2022-12-19T02:08:55.254Z,101993.84
2022-12-19T02:09:58.089Z,101992.59
2022-12-19T02:11:01.834Z,101994.35
2022-12-19T02:12:05.470Z,101995.81
2022-12-19T02:13:09.793Z,102005.63
2022-12-19T03:52:28.607Z,102057.75
2022-12-19T03:53:50.549Z,102058.08
2022-12-19T06:08:25.809Z,102179.35
2022-12-19T06:09:28.074Z,102173.93
2022-12-19T06:10:30.011Z,102178.77
2022-12-19T06:11:32.116Z,102181.72
2022-12-19T06:12:34.065Z,102168.98
2022-12-19T06:13:37.163Z,102170.09
2022-12-19T06:14:39.425Z,102170.54
2022-12-19T06:15:41.298Z,102179.20
2022-12-19T06:16:43.173Z,102178.71
2022-12-19T06:17:44.981Z,102182.75
2022-12-19T06:18:47.209Z,102180.49
2022-12-19T06:19:49.198Z,102172.97
2022-12-19T06:21:04.131Z,102177.34
2022-12-19T06:22:05.999Z,102173.66
2022-12-19T06:23:08.048Z,102178.66
2022-12-19T06:24:10.951Z,102169.28
2022-12-19T06:25:12.933Z,102169.37
2022-12-19T06:26:20.000Z,102173.86
2022-12-19T06:27:21.812Z,102166.77
2022-12-19T06:28:25.486Z,102165.75
2022-12-19T06:29:27.443Z,102164.62
2022-12-19T06:30:29.452Z,102161.89
2022-12-19T06:31:31.449Z,102164.23
2022-12-19T06:32:37.714Z,102164.23
2022-12-19T06:33:37.173Z,102165.98
2022-12-19T06:35:03.240Z,102165.98
2022-12-19T06:35:43.059Z,102164.23
2022-12-19T06:36:44.947Z,102168.45
2022-12-19T06:37:48.083Z,102174.36
2022-12-19T06:38:50.907Z,102167.53
2022-12-19T06:39:52.851Z,102171.83
2022-12-19T06:40:55.171Z,102180.77
2022-12-19T06:41:57.202Z,102182.97
2022-12-19T06:42:59.169Z,102182.97
2022-12-19T06:44:03.411Z,102186.06
2022-12-19T06:45:07.191Z,102182.27
2022-12-19T06:46:09.629Z,102190.08
2022-12-19T06:47:11.611Z,102189.10
2022-12-19T06:48:13.581Z,102182.97
2022-12-19T06:49:15.337Z,102185.41
2022-12-19T06:50:17.550Z,102186.97
2022-12-19T06:51:20.029Z,102190.38
2022-12-19T06:52:22.123Z,102179.98
2022-12-19T06:53:24.186Z,102171.74
2022-12-19T06:54:26.583Z,102183.53
2022-12-19T06:55:28.453Z,102181.89
2022-12-19T06:56:36.144Z,102191.67
2022-12-19T06:57:38.327Z,102188.52
2022-12-19T06:58:40.481Z,102181.05
2022-12-19T06:59:42.221Z,102194.26
2022-12-19T07:00:44.457Z,102184.64
2022-12-19T07:02:02.229Z,102184.64
2022-12-19T07:03:07.691Z,102187.62
2022-12-19T07:04:12.728Z,102197.83
2022-12-19T07:05:14.834Z,102196.50
2022-12-19T07:06:17.377Z,102186.29
2022-12-19T07:07:19.854Z,102195.23
2022-12-19T07:08:21.957Z,102205.80
2022-12-19T07:09:25.140Z,102197.64
2022-12-19T07:10:27.533Z,102201.07
2022-12-19T08:26:24.159Z,102280.13
2022-12-19T08:27:27.370Z,102296.38
2022-12-19T08:28:31.459Z,102287.62
2022-12-19T08:29:33.562Z,102267.32
2022-12-19T08:30:40.558Z,102272.77
2022-12-19T08:31:42.487Z,102266.85
2022-12-19T08:32:45.054Z,102275.41
2022-12-19T08:33:47.033Z,102276.16
2022-12-19T08:34:49.995Z,102274.27
2022-12-19T08:35:52.030Z,102267.73
2022-12-19T08:36:53.881Z,102275.89
2022-12-19T08:37:55.582Z,102272.73
2022-12-19T08:38:57.425Z,102269.69
2022-12-19T08:40:00.533Z,102283.86
2022-12-19T08:41:03.145Z,102270.55
2022-12-19T08:42:05.168Z,102269.19
2022-12-19T08:43:06.912Z,102277.11
2022-12-19T08:44:11.003Z,102272.93
2022-12-19T08:45:13.064Z,102270.70
2022-12-19T08:46:15.813Z,102264.77
2022-12-19T08:47:17.910Z,102268.48
2022-12-19T08:48:20.178Z,102261.72
2022-12-19T08:49:22.062Z,102273.20
2022-12-19T08:50:24.145Z,102270.11
2022-12-19T08:51:26.021Z,102274.69
2022-12-19T08:52:28.027Z,102279.48
2022-12-19T08:53:32.478Z,102281.25
2022-12-19T08:54:34.558Z,102270.75
2022-12-19T08:55:36.303Z,102270.75
2022-12-19T08:56:43.588Z,102280.05
2022-12-19T08:57:42.902Z,102277.61
2022-12-19T08:58:45.670Z,102275.13
2022-12-19T08:59:47.953Z,102270.83
2022-12-19T09:00:56.523Z,102279.66
2022-12-19T09:01:57.377Z,102279.66
2022-12-19T09:03:00.017Z,102276.73
2022-12-19T09:05:50.889Z,102277.94
2022-12-19T09:05:58.411Z,102271.55
2022-12-19T09:06:19.084Z,102261.83
2022-12-19T09:07:16.883Z,102275.23
2022-12-19T09:08:18.635Z,102273.22
2022-12-19T09:09:20.360Z,102267.00
2022-12-19T09:10:22.199Z,102274.00
2022-12-19T09:11:24.475Z,102272.88
2022-12-19T09:12:26.619Z,102265.59
2022-12-19T09:13:29.925Z,102263.20
2022-12-19T09:14:34.086Z,102260.92
2022-12-19T09:15:35.889Z,102261.97
2022-12-19T09:16:39.322Z,102251.28
2022-12-19T09:17:41.450Z,102257.56
2022-12-19T09:18:48.792Z,102253.97
2022-12-19T09:19:50.132Z,102256.95
2022-12-19T09:20:55.581Z,102263.54
2022-12-19T09:21:57.420Z,102259.72
2022-12-19T09:22:59.037Z,102270.08
2022-12-19T09:24:07.483Z,102265.50
2022-12-19T09:25:05.557Z,102273.56
2022-12-19T09:26:12.402Z,102265.50
2022-12-19T09:27:14.957Z,102264.56
2022-12-19T09:28:27.393Z,102263.94
2022-12-19T09:29:22.296Z,102271.98
2022-12-19T09:30:24.529Z,102264.98
2022-12-19T09:31:28.009Z,102264.47
2022-12-19T09:32:30.054Z,102270.05
2022-12-19T09:33:41.206Z,102271.62
2022-12-19T09:34:39.110Z,102267.02
2022-12-19T09:35:45.015Z,102268.25
2022-12-19T09:36:47.105Z,102268.25
2022-12-19T09:37:49.384Z,102277.33
2022-12-19T09:38:55.778Z,102276.27
2022-12-19T09:39:58.910Z,102280.52
2022-12-19T09:41:05.043Z,102275.16
2022-12-19T09:42:23.311Z,102278.42
2022-12-19T09:43:28.811Z,102276.52
2022-12-19T09:44:40.320Z,102278.80
2022-12-19T09:46:04.351Z,102277.71
2022-12-19T09:47:19.164Z,102276.98
2022-12-19T09:48:24.439Z,102275.75
2022-12-19T09:49:41.667Z,102282.93
2022-12-19T09:51:10.070Z,102268.63
2022-12-19T09:52:13.715Z,102277.97
2022-12-19T09:53:24.972Z,102269.24
2022-12-19T09:54:36.717Z,102266.22
2022-12-19T09:55:41.009Z,102257.75
2022-12-19T09:56:45.660Z,102263.73
2022-12-19T09:58:00.548Z,102260.40
2022-12-19T09:59:13.931Z,102267.61
2022-12-19T10:00:19.412Z,102267.84
2022-12-19T10:01:25.183Z,102264.72
2022-12-19T10:02:34.150Z,102263.09
2022-12-19T14:22:52.531Z,102161.95
2022-12-19T14:24:19.350Z,102163.05
2022-12-19T14:28:14.850Z,102173.22
2022-12-19T14:28:17.937Z,102169.09
2022-12-19T14:28:20.125Z,102166.41
2022-12-19T14:28:54.391Z,102165.83
2022-12-19T14:30:30.881Z,102168.62
2022-12-19T14:31:01.401Z,102159.33
2022-12-19T14:33:21.991Z,102175.05
2022-12-19T14:33:45.854Z,102171.17
2022-12-19T14:34:47.120Z,102171.23
2022-12-19T14:36:07.878Z,102176.50
2022-12-19T14:36:50.747Z,102173.37
2022-12-19T14:39:20.361Z,102177.35
2022-12-19T14:39:25.134Z,102173.49
2022-12-19T14:40:25.708Z,102174.45
2022-12-19T14:41:31.397Z,102177.06
2022-12-19T14:43:57.345Z,102179.42
2022-12-19T14:44:00.527Z,102183.48
2022-12-19T14:52:08.736Z,102176.20
2022-12-19T14:54:00.205Z,102187.20
2022-12-19T14:54:03.814Z,102184.03
2022-12-19T14:54:40.197Z,102189.29
2022-12-19T14:57:06.245Z,102194.22
2022-12-19T14:58:53.099Z,102193.11
2022-12-19T14:59:32.855Z,102190.09
2022-12-19T15:01:08.375Z,102193.49
2022-12-19T15:02:07.520Z,102186.89
2022-12-19T15:03:16.114Z,102183.31
2022-12-19T15:04:53.257Z,102190.08
2022-12-19T15:05:24.797Z,102191.45
2022-12-19T15:07:07.430Z,102185.15
2022-12-19T15:07:34.633Z,102174.66
2022-12-19T15:09:02.592Z,102174.66
2022-12-19T15:11:00.906Z,102175.13
2022-12-19T15:11:16.163Z,102178.92
2022-12-19T15:14:46.608Z,102175.27
2022-12-19T15:14:46.785Z,102174.48
2022-12-19T15:14:56.173Z,102173.84
2022-12-19T15:15:47.913Z,102172.12
2022-12-19T15:17:10.211Z,102168.93
2022-12-19T15:18:19.274Z,102174.52
2022-12-19T15:19:21.324Z,102173.39
2022-12-19T15:20:23.922Z,102167.12
2022-12-19T15:21:27.214Z,102174.66
2022-12-19T15:22:29.199Z,102169.42
2022-12-19T15:23:32.094Z,102172.22
2022-12-19T15:24:34.133Z,102176.27
2022-12-19T15:26:02.829Z,102179.28
2022-12-19T15:26:52.008Z,102175.13
2022-12-19T15:27:54.555Z,102172.98
2022-12-19T15:28:57.159Z,102169.72
2022-12-19T15:29:59.585Z,102175.34
2022-12-19T15:31:23.655Z,102171.83
2022-12-19T15:32:27.003Z,102169.39
2022-12-19T15:33:29.167Z,102167.84
2022-12-19T15:34:35.848Z,102170.46
2022-12-19T15:35:36.570Z,102172.75
2022-12-19T15:36:38.676Z,102168.88
2022-12-19T15:37:40.906Z,102170.46
2022-12-19T15:38:42.889Z,102172.03
2022-12-19T15:39:45.023Z,102175.47
2022-12-19T15:40:47.791Z,102167.12
2022-12-19T15:41:53.943Z,102171.25
2022-12-19T15:42:58.238Z,102166.80
2022-12-19T15:44:09.843Z,102176.07
2022-12-19T15:45:15.681Z,102170.46
2022-12-19T15:46:17.901Z,102173.97
2022-12-19T15:47:36.788Z,102177.30
2022-12-19T15:48:41.847Z,102180.48
2022-12-19T15:49:43.905Z,102177.12
2022-12-19T15:50:46.563Z,102183.63
2022-12-19T15:51:50.472Z,102187.64
2022-12-19T15:52:55.724Z,102175.55
2022-12-19T15:54:15.523Z,102185.11
2022-12-19T15:55:02.388Z,102183.61
2022-12-19T15:56:07.135Z,102180.50
2022-12-19T15:57:16.245Z,102179.50
2022-12-19T15:58:19.794Z,102182.91
2022-12-19T16:00:32.848Z,102177.42
2022-12-19T16:01:36.296Z,102177.03
2022-12-19T16:03:21.066Z,102179.57
2022-12-19T16:03:50.906Z,102182.83
2022-12-19T16:04:54.490Z,102179.64
2022-12-19T16:05:57.810Z,102186.55
2022-12-19T16:07:14.129Z,102185.44
2022-12-19T16:08:19.577Z,102183.68
2022-12-19T16:09:38.849Z,102181.67
2022-12-19T16:10:55.898Z,102186.68
2022-12-19T16:12:22.236Z,102187.47
2022-12-19T16:13:31.481Z,102182.71
2022-12-19T16:14:33.749Z,102186.37
2022-12-19T16:15:37.134Z,102181.61
2022-12-19T16:16:40.733Z,102187.05
2022-12-19T16:17:43.846Z,102185.76
2022-12-19T16:18:46.769Z,102185.76
2022-12-19T16:19:50.937Z,102187.38
2022-12-19T16:20:53.399Z,102189.92
2022-12-19T16:21:57.084Z,102180.55
2022-12-19T16:22:59.507Z,102187.64
2022-12-19T16:24:01.812Z,102184.36
2022-12-19T16:25:07.668Z,102176.41
2022-12-19T16:26:15.776Z,102183.25
2022-12-19T16:27:24.541Z,102175.44
2022-12-19T16:28:31.425Z,102185.94
2022-12-19T16:29:42.101Z,102186.98
2022-12-19T16:31:59.533Z,102180.82
2022-12-19T16:45:23.047Z,102161.86
2022-12-19T16:46:25.263Z,102161.05
2022-12-19T16:47:27.832Z,102164.98
2022-12-19T16:48:30.973Z,102167.19
2022-12-19T16:49:33.517Z,102155.06
2022-12-19T16:50:35.586Z,102160.62
2022-12-19T16:51:37.819Z,102157.03
2022-12-19T16:52:42.722Z,102153.78
2022-12-19T16:53:43.842Z,102157.61
2022-12-19T16:54:46.657Z,102155.39
2022-12-19T16:55:49.788Z,102152.84
2022-12-19T16:56:53.317Z,102150.58
2022-12-19T16:57:56.289Z,102145.04
2022-12-19T16:59:02.155Z,102146.28
2022-12-19T17:00:06.233Z,102140.16
2022-12-19T17:01:09.680Z,102138.97
2022-12-19T17:02:19.233Z,102134.67
2022-12-19T17:03:34.472Z,102128.80
2022-12-19T17:04:41.833Z,102135.97
2022-12-19T17:05:41.264Z,102126.92
2022-12-19T17:06:44.212Z,102124.97
2022-12-19T17:07:47.368Z,102128.00
2022-12-19T17:08:49.725Z,102122.55
2022-12-19T17:09:51.871Z,102127.45
2022-12-19T17:10:54.844Z,102130.24
2022-12-19T17:12:01.040Z,102129.38
2022-12-19T17:13:03.690Z,102125.72
2022-12-19T17:15:23.389Z,102122.17
2022-12-19T17:16:25.890Z,102118.55
2022-12-19T17:17:28.586Z,102119.59
2022-12-19T17:18:36.220Z,102112.24
2022-12-19T17:19:39.308Z,102116.83
2022-12-19T17:20:43.458Z,102111.30
2022-12-19T17:21:45.553Z,102111.34
2022-12-19T17:22:48.172Z,102101.11
2022-12-19T17:23:51.311Z,102101.11
2022-12-19T17:24:53.446Z,102110.09
2022-12-19T17:25:56.256Z,102108.37
2022-12-19T17:26:58.410Z,102109.44
2022-12-19T17:28:00.794Z,102106.84
2022-12-19T17:29:02.797Z,102106.44
2022-12-19T17:30:06.646Z,102107.38
2022-12-19T17:32:33.498Z,102103.50
2022-12-19T17:33:38.521Z,102095.72
2022-12-19T17:34:40.629Z,102106.08
2022-12-19T17:35:44.411Z,102096.12
2022-12-19T17:36:47.225Z,102095.45
2022-12-19T17:37:52.816Z,102095.09
2022-12-19T17:39:00.229Z,102098.31
2022-12-19T17:40:03.937Z,102097.59
2022-12-19T17:41:08.351Z,102097.17
2022-12-19T17:43:26.234Z,102096.55
2022-12-19T17:44:29.190Z,102087.31
2022-12-19T17:45:33.252Z,102082.08
2022-12-19T17:46:36.255Z,102083.14
2022-12-19T17:47:38.731Z,102088.08
2022-12-19T17:48:40.611Z,102083.33
2022-12-19T17:49:43.855Z,102081.05
2022-12-19T17:50:47.044Z,102075.83
2022-12-19T17:51:51.293Z,102080.72
2022-12-19T17:52:54.563Z,102081.95
2022-12-19T17:53:57.100Z,102077.09
2022-12-19T17:54:58.935Z,102087.58
2022-12-19T17:56:00.671Z,102079.03
2022-12-19T17:57:02.637Z,102072.20
2022-12-19T17:58:04.610Z,102075.52
2022-12-19T17:59:06.535Z,102077.79
2022-12-19T18:00:09.923Z,102073.27
2022-12-19T18:01:22.846Z,102080.06
2022-12-19T18:02:27.810Z,102085.41
2022-12-19T18:03:30.628Z,102076.75
2022-12-19T18:04:32.468Z,102082.80
2022-12-19T18:05:36.249Z,102084.36
2022-12-19T18:06:38.917Z,102081.98
2022-12-19T18:07:40.699Z,102082.80
2022-12-19T18:08:43.408Z,102085.34
2022-12-19T18:09:45.501Z,102086.39
2022-12-19T18:10:47.517Z,102076.05
2022-12-19T18:11:51.795Z,102084.28
2022-12-19T18:12:54.814Z,102076.98
2022-12-19T18:13:57.845Z,102078.67
2022-12-19T18:15:00.699Z,102089.16
2022-12-19T18:16:04.283Z,102081.75
2022-12-19T18:17:06.178Z,102088.30
2022-12-19T18:18:14.155Z,102088.03
2022-12-19T18:19:21.935Z,102085.84
2022-12-19T18:20:31.924Z,102084.09
2022-12-19T18:21:33.422Z,102083.39
2022-12-19T18:22:35.780Z,102076.56
2022-12-19T18:23:38.739Z,102081.13
2022-12-19T18:24:41.650Z,102079.02
2022-12-19T18:25:44.674Z,102084.09
2022-12-19T18:26:46.667Z,102075.86
2022-12-19T18:27:48.520Z,102072.11
2022-12-19T18:28:50.350Z,102073.41
2022-12-19T18:29:52.198Z,102072.54
2022-12-19T18:30:58.140Z,102076.56
2022-12-19T18:32:00.293Z,102070.00
2022-12-19T18:33:04.008Z,102088.05
2022-12-19T18:34:08.400Z,102078.81
2022-12-19T18:35:20.154Z,102083.69
2022-12-19T18:36:25.509Z,102068.66
2022-12-19T18:37:27.570Z,102070.00
2022-12-19T18:38:30.103Z,102069.22
2022-12-19T18:39:31.891Z,102074.02
2022-12-19T18:40:34.558Z,102079.25
2022-12-19T18:41:36.670Z,102076.50
2022-12-19T18:42:39.273Z,102068.11
2022-12-19T18:43:41.054Z,102072.68
2022-12-19T18:44:43.183Z,102062.81
2022-12-19T18:45:47.855Z,102058.69
2022-12-19T18:46:51.111Z,102066.72
2022-12-19T18:47:57.456Z,102063.23
2022-12-19T18:48:59.572Z,102059.91
2022-12-19T18:50:02.520Z,102061.29
2022-12-19T18:51:05.757Z,102059.56
2022-12-19T18:52:10.427Z,102057.27
2022-12-19T18:53:16.058Z,102047.48
2022-12-19T18:54:20.996Z,102052.31
2022-12-19T18:55:28.888Z,102047.48
2022-12-19T18:56:31.516Z,102060.70
2022-12-19T18:57:33.309Z,102047.33
2022-12-19T18:58:36.388Z,102041.75
2022-12-19T18:59:38.942Z,102043.47
2022-12-19T19:00:41.091Z,102042.61
2022-12-19T19:01:45.978Z,102046.82
2022-12-19T19:03:03.445Z,102046.63
2022-12-19T19:04:05.534Z,102045.23
2022-12-19T20:12:44.934Z,102027.44
2022-12-19T20:13:47.161Z,102030.00
2022-12-19T20:14:49.269Z,102034.46
2022-12-19T20:15:52.140Z,102034.58
2022-12-19T20:16:55.445Z,102033.69
2022-12-19T20:18:04.107Z,102035.23
2022-12-19T20:19:08.323Z,102035.06
2022-12-19T20:20:11.399Z,102033.69
2022-12-19T20:21:14.105Z,102028.99
2022-12-19T20:22:17.334Z,102018.73
2022-12-19T20:23:19.640Z,102022.54
2022-12-19T20:24:21.868Z,102028.82
2022-12-19T20:25:24.184Z,102014.16
2022-12-19T20:26:26.165Z,102023.92
2022-12-19T20:27:33.536Z,102025.77
2022-12-19T20:28:38.744Z,102027.92
2022-12-19T20:29:41.228Z,102026.70
2022-12-19T20:30:44.273Z,102037.52
2022-12-19T20:31:46.877Z,102025.11
2022-12-19T20:32:49.148Z,102018.69
2022-12-19T20:33:53.490Z,102020.45
2022-12-19T20:34:55.412Z,102015.75
2022-12-19T20:36:03.811Z,102019.23
2022-12-19T20:37:06.409Z,102019.06
2022-12-19T20:38:08.406Z,102026.66
2022-12-19T20:39:10.225Z,102024.98
2022-12-19T20:40:12.230Z,102018.86
2022-12-19T20:41:15.359Z,102012.04
2022-12-19T20:42:17.901Z,102017.88
2022-12-19T20:43:19.866Z,102014.16
2022-12-19T20:44:24.420Z,102004.03
2022-12-19T20:45:25.948Z,102002.76
2022-12-19T20:46:29.193Z,101998.47
2022-12-19T20:47:31.065Z,101986.66
2022-12-19T20:48:33.255Z,101988.98
2022-12-19T20:49:36.253Z,101982.36
2022-12-19T20:50:42.885Z,101980.96
2022-12-19T20:51:43.574Z,101982.72
2022-12-19T20:52:45.483Z,101984.05
2022-12-19T20:53:48.818Z,101980.20
2022-12-19T20:54:50.748Z,101978.06
2022-12-19T20:55:58.493Z,101976.52
2022-12-19T20:57:09.779Z,101974.58
2022-12-19T20:58:13.692Z,101977.73
2022-12-19T20:59:16.347Z,101972.20
2022-12-19T21:00:19.680Z,101964.80
2022-12-19T21:01:28.541Z,101968.30
2022-12-19T21:02:53.068Z,101961.83
2022-12-19T21:03:39.543Z,101963.58
2022-12-19T21:04:41.707Z,101960.94
2022-12-19T21:05:47.469Z,101962.53
2022-12-19T21:06:49.644Z,101967.25
2022-12-19T21:07:51.409Z,101968.30
2022-12-19T21:08:56.963Z,101964.36
2022-12-19T21:09:59.470Z,101964.70
2022-12-19T21:11:04.159Z,101964.08
2022-12-19T21:12:06.870Z,101967.05
2022-12-19T21:13:09.096Z,101967.05
2022-12-19T21:14:11.089Z,101972.48
2022-12-19T21:15:13.559Z,101967.06
2022-12-19T21:16:18.524Z,101963.50
2022-12-19T21:17:20.549Z,101965.69
2022-12-19T21:18:24.193Z,101964.44
2022-12-19T21:19:29.362Z,101955.55
2022-12-19T21:20:36.133Z,101953.02
2022-12-19T21:21:38.305Z,101957.66
2022-12-19T21:22:40.633Z,101947.52
